< < Back
Terminal Aerodrome Forecast


Current Version              Previous Versions:   1  2  3  4  5  6  7  8  9  

Terminal Aerodrome Forecast

550
FTUS42 KGSP 280900 AAB
TAFAVL
TAF AMD
KAVL 280913Z 2809/2906 00000KT P6SM BKN040 OVC080
      TEMPO 2809/2812 4SM BR BKN005
     FM281400 32013G20KT P6SM SCT045
     FM281600 32014G25KT P6SM SCT250
     FM290000 32009KT P6SM SCT250
     FM290300 32007KT P6SM SCT040=

Latest METAR

159
SAUS70 KWBC 282000 RRJ
MTRAVL
METAR KAVL 281954Z 34017G20KT 10SM CLR 26/13 A2995 RMK AO2 PK WND
35029/1904 SLP117 T02610133


USA.gov is the U.S. government's official web portal to all federal, state and local government web resources and services.